Time;durP1;ratioP1;P1;durP2;ratioP2;P2;SDS_P1;SDS_P2;PMS_P1;PMS_P2;Temp;Humidity;BMP_temperature;BMP_pressure;BME280_temperature;BME280_humidity;BME280_pressure;Samples;Min_cycle;Max_cycle;Signal;HPM_P1;HPM_P2
2023/04/19 00:00:51;;;;;;;13.85;7.93;;;8.00;99.90;;;;;;5071587;28;20060;-68
2023/04/19 00:03:17;;;;;;;14.43;7.63;;;7.90;99.90;;;;;;5028633;28;210553;-67
2023/04/19 00:05:43;;;;;;;13.38;7.50;;;7.90;99.90;;;;;;5078947;28;20080;-67
2023/04/19 00:08:09;;;;;;;13.90;7.35;;;7.80;99.90;;;;;;5024254;28;210524;-67
2023/04/19 00:10:36;;;;;;;14.07;8.10;;;7.90;99.90;;;;;;5073271;28;20061;-67
2023/04/19 00:13:02;;;;;;;14.60;8.02;;;7.80;99.90;;;;;;5017439;28;210762;-68
2023/04/19 00:15:28;;;;;;;16.33;8.05;;;7.80;99.90;;;;;;5068076;28;20551;-69
2023/04/19 00:17:55;;;;;;;16.08;8.05;;;7.80;99.90;;;;;;5010459;28;207118;-67
2023/04/19 00:20:21;;;;;;;14.10;8.02;;;7.70;99.90;;;;;;5064745;28;20052;-67
2023/04/19 00:22:47;;;;;;;15.15;7.90;;;7.70;99.90;;;;;;4992808;28;212129;-68
2023/04/19 00:25:13;;;;;;;14.15;7.82;;;7.70;99.90;;;;;;5051035;28;20049;-67
2023/04/19 00:27:39;;;;;;;14.55;8.13;;;7.70;99.90;;;;;;4996174;28;213341;-67
2023/04/19 00:30:06;;;;;;;15.80;8.50;;;7.70;99.90;;;;;;5071738;28;20048;-68
2023/04/19 00:32:32;;;;;;;14.05;7.80;;;7.60;99.90;;;;;;5023570;28;210438;-68
2023/04/19 00:34:58;;;;;;;13.73;8.23;;;7.60;99.90;;;;;;5077116;28;20131;-68
2023/04/19 00:37:24;;;;;;;13.93;8.23;;;7.60;99.90;;;;;;4999956;28;214793;-67
2023/04/19 00:39:50;;;;;;;14.13;7.70;;;7.50;99.90;;;;;;5058346;28;21329;-67
2023/04/19 00:42:16;;;;;;;13.18;7.88;;;7.50;99.90;;;;;;5021373;28;222803;-68
2023/04/19 00:44:43;;;;;;;15.18;8.00;;;7.50;99.90;;;;;;5071678;28;20044;-67
2023/04/19 00:47:09;;;;;;;15.70;8.18;;;7.50;99.90;;;;;;5003338;28;210492;-68
2023/04/19 00:49:36;;;;;;;14.13;8.00;;;7.40;99.90;;;;;;5074721;28;20060;-67
2023/04/19 00:52:02;;;;;;;13.52;7.85;;;7.40;99.90;;;;;;5015509;28;210735;-67
2023/04/19 00:54:29;;;;;;;14.10;7.70;;;7.40;99.90;;;;;;5072946;28;20457;-68
2023/04/19 00:56:55;;;;;;;15.73;8.57;;;7.40;99.90;;;;;;4992884;28;210435;-67
2023/04/19 00:59:23;;;;;;;13.98;8.38;;;7.40;99.90;;;;;;5062437;28;20076;-67
2023/04/19 01:01:49;;;;;;;14.52;7.95;;;7.40;99.90;;;;;;5011811;28;209954;-67
2023/04/19 01:04:15;;;;;;;14.93;8.43;;;7.30;99.90;;;;;;5065993;28;20048;-67
2023/04/19 01:06:41;;;;;;;16.42;8.80;;;7.30;99.90;;;;;;5004496;28;206684;-67
2023/04/19 01:09:08;;;;;;;14.30;7.80;;;7.30;99.90;;;;;;5071156;28;20056;-66
2023/04/19 01:11:34;;;;;;;14.07;8.25;;;7.30;99.90;;;;;;5009304;28;213100;-66
2023/04/19 01:14:00;;;;;;;16.05;8.52;;;7.30;99.90;;;;;;5074275;28;20064;-68
2023/04/19 01:16:26;;;;;;;16.80;8.40;;;7.30;99.90;;;;;;5010734;28;205876;-68
2023/04/19 01:18:53;;;;;;;14.27;8.68;;;7.30;99.90;;;;;;5047530;28;20052;-68
2023/04/19 01:21:21;;;;;;;14.50;8.65;;;7.30;99.90;;;;;;5008078;28;216043;-67
2023/04/19 01:23:47;;;;;;;14.38;8.77;;;7.30;99.90;;;;;;5061335;28;20067;-69
2023/04/19 01:26:13;;;;;;;15.30;8.75;;;7.20;99.90;;;;;;5011835;28;215675;-68
2023/04/19 01:28:39;;;;;;;14.88;8.57;;;7.30;99.90;;;;;;5058457;28;20882;-67
2023/04/19 01:31:05;;;;;;;17.80;9.55;;;7.30;99.90;;;;;;5033631;28;214769;-67
2023/04/19 01:33:31;;;;;;;16.75;8.90;;;7.20;99.90;;;;;;5050142;28;20060;-67
2023/04/19 01:35:57;;;;;;;15.55;9.02;;;7.20;99.90;;;;;;5075626;28;20130;-67
2023/04/19 01:38:24;;;;;;;18.60;9.23;;;7.20;99.90;;;;;;5011820;28;208538;-68
2023/04/19 01:40:50;;;;;;;17.63;9.73;;;7.20;99.90;;;;;;5061321;28;20410;-67
2023/04/19 01:43:17;;;;;;;19.33;10.13;;;7.20;99.90;;;;;;5005914;28;206933;-67
2023/04/19 01:45:44;;;;;;;16.65;9.43;;;7.20;99.90;;;;;;5055879;28;20510;-68
2023/04/19 01:48:10;;;;;;;16.50;10.15;;;7.10;99.90;;;;;;5015052;28;210854;-66
2023/04/19 01:50:36;;;;;;;17.52;9.57;;;7.10;99.90;;;;;;5074559;28;20056;-69
2023/04/19 01:53:02;;;;;;;16.45;9.38;;;7.10;99.90;;;;;;4999508;28;199143;-67
2023/04/19 01:55:28;;;;;;;17.95;9.43;;;7.10;99.90;;;;;;5062817;28;20055;-68
2023/04/19 01:57:55;;;;;;;17.70;9.88;;;7.10;99.90;;;;;;4950857;28;215044;-67
2023/04/19 02:00:21;;;;;;;19.95;10.43;;;7.00;99.90;;;;;;5049829;28;20911;-67
2023/04/19 02:02:47;;;;;;;16.10;10.10;;;7.00;99.90;;;;;;5001343;28;210521;-67
2023/04/19 02:05:13;;;;;;;15.85;10.75;;;7.00;99.90;;;;;;5052577;28;20068;-67
2023/04/19 02:07:39;;;;;;;21.15;11.45;;;7.00;99.90;;;;;;4988242;28;211734;-69
2023/04/19 02:10:09;;;;;;;21.45;11.55;;;7.00;99.90;;;;;;5052923;28;20551;-68
2023/04/19 02:12:35;;;;;;;18.52;11.20;;;6.90;99.90;;;;;;4996853;28;206850;-68
2023/04/19 02:15:03;;;;;;;23.65;12.68;;;6.90;99.90;;;;;;5063784;28;20049;-68
2023/04/19 02:17:29;;;;;;;17.98;11.20;;;6.90;99.90;;;;;;5000697;28;128385;-68
2023/04/19 02:19:55;;;;;;;18.80;12.25;;;6.90;99.90;;;;;;5055835;28;20060;-68
2023/04/19 02:22:21;;;;;;;19.20;11.57;;;6.90;99.90;;;;;;4985229;28;207259;-68
2023/04/19 02:24:50;;;;;;;18.77;11.65;;;6.80;99.90;;;;;;5067983;28;20507;-68
2023/04/19 02:27:17;;;;;;;19.63;12.07;;;6.80;99.90;;;;;;5034782;28;210966;-68
2023/04/19 02:29:43;;;;;;;19.52;11.25;;;6.80;99.90;;;;;;5081371;28;20051;-68
2023/04/19 02:32:11;;;;;;;20.23;11.20;;;6.80;99.90;;;;;;5028210;28;210082;-68
2023/04/19 02:34:37;;;;;;;17.85;11.82;;;6.80;99.90;;;;;;5073557;28;20059;-68
2023/04/19 02:37:04;;;;;;;18.83;11.52;;;6.80;99.90;;;;;;5018980;28;212491;-68
2023/04/19 02:39:30;;;;;;;20.60;11.43;;;6.80;99.90;;;;;;5073035;28;20051;-68
2023/04/19 02:41:56;;;;;;;20.65;11.73;;;6.80;99.90;;;;;;5018888;28;210006;-68
2023/04/19 02:44:22;;;;;;;19.55;11.20;;;6.70;99.90;;;;;;5064677;28;20067;-66
2023/04/19 02:46:49;;;;;;;20.50;11.35;;;6.70;99.90;;;;;;5023271;28;208298;-67
2023/04/19 02:49:16;;;;;;;17.13;11.15;;;6.70;99.90;;;;;;5084377;28;20430;-67
2023/04/19 02:51:42;;;;;;;18.55;11.48;;;6.70;99.90;;;;;;5008301;28;221099;-67
2023/04/19 02:54:08;;;;;;;15.30;10.18;;;6.60;99.90;;;;;;5047671;28;20053;-67
2023/04/19 02:56:34;;;;;;;18.42;10.40;;;6.60;99.90;;;;;;4987933;28;279168;-67
2023/04/19 02:59:01;;;;;;;18.52;10.82;;;6.60;99.90;;;;;;5051462;28;20526;-68
2023/04/19 03:01:27;;;;;;;19.13;10.15;;;6.60;99.90;;;;;;5012591;28;212783;-67
2023/04/19 03:03:53;;;;;;;17.52;10.30;;;6.60;99.90;;;;;;5074751;28;20051;-67
2023/04/19 03:06:19;;;;;;;16.10;9.88;;;6.60;99.90;;;;;;5025567;28;216579;-67
2023/04/19 03:08:45;;;;;;;17.83;9.82;;;6.60;99.90;;;;;;5081888;28;20052;-66
2023/04/19 03:11:12;;;;;;;18.05;10.02;;;6.50;99.90;;;;;;5022681;28;209926;-67
2023/04/19 03:13:39;;;;;;;16.95;9.40;;;6.50;99.90;;;;;;5091783;28;20048;-67
2023/04/19 03:16:06;;;;;;;16.77;9.43;;;6.50;99.90;;;;;;5039676;28;210109;-67
2023/04/19 03:18:32;;;;;;;18.85;9.80;;;6.40;99.90;;;;;;5056438;28;20044;-67
2023/04/19 03:20:58;;;;;;;17.80;9.20;;;6.40;99.90;;;;;;5080820;28;20130;-67
2023/04/19 03:23:28;;;;;;;17.83;9.73;;;6.40;99.90;;;;;;5020611;28;207754;-67
2023/04/19 03:25:54;;;;;;;17.10;9.48;;;6.40;99.90;;;;;;5077268;28;20143;-67
2023/04/19 03:28:20;;;;;;;15.40;8.70;;;6.30;99.90;;;;;;4988660;28;208483;-66
2023/04/19 03:30:46;;;;;;;16.58;8.85;;;6.30;99.90;;;;;;5058274;28;20457;-67
2023/04/19 03:33:12;;;;;;;17.52;8.57;;;6.30;99.90;;;;;;5007948;28;207849;-66
2023/04/19 03:35:38;;;;;;;16.33;9.07;;;6.20;99.90;;;;;;5061519;28;20380;-67
2023/04/19 03:38:04;;;;;;;17.33;9.00;;;6.20;99.90;;;;;;5019645;28;217294;-69
2023/04/19 03:40:36;;;;;;;16.98;8.73;;;6.20;99.90;;;;;;5061936;28;20055;-67
2023/04/19 03:43:02;;;;;;;15.77;8.82;;;6.20;99.90;;;;;;4998390;28;212064;-67
2023/04/19 03:45:29;;;;;;;14.85;8.65;;;6.10;99.90;;;;;;5075635;28;20075;-66
2023/04/19 03:47:55;;;;;;;15.95;7.90;;;6.00;99.90;;;;;;5007175;28;206109;-67
2023/04/19 03:50:21;;;;;;;13.73;7.93;;;6.10;99.90;;;;;;5070986;28;20058;-66
2023/04/19 03:52:47;;;;;;;15.20;8.90;;;6.00;99.90;;;;;;5011484;28;216979;-67
2023/04/19 03:55:13;;;;;;;15.98;8.48;;;6.00;99.90;;;;;;5068627;28;20071;-66
2023/04/19 03:57:40;;;;;;;17.55;7.97;;;6.00;99.90;;;;;;5009776;28;218345;-66
2023/04/19 04:00:07;;;;;;;18.75;8.50;;;5.90;99.90;;;;;;5057589;28;20079;-67
2023/04/19 04:02:36;;;;;;;17.35;8.40;;;5.90;99.90;;;;;;5003165;28;214031;-66
2023/04/19 04:05:03;;;;;;;16.15;8.48;;;5.90;99.90;;;;;;5052245;28;20039;-67
2023/04/19 04:07:29;;;;;;;14.70;8.02;;;5.80;99.90;;;;;;5032477;28;207850;-67
2023/04/19 04:09:55;;;;;;;15.23;8.00;;;5.80;99.90;;;;;;5062158;28;20523;-67
2023/04/19 04:12:21;;;;;;;15.10;8.23;;;5.80;99.90;;;;;;5024286;28;209586;-67
2023/04/19 04:14:47;;;;;;;15.82;8.35;;;5.70;99.90;;;;;;5061835;28;20049;-66
2023/04/19 04:17:13;;;;;;;15.52;7.80;;;5.70;99.90;;;;;;4998937;28;213893;-67
2023/04/19 04:19:39;;;;;;;14.23;7.85;;;5.70;99.90;;;;;;5051523;28;20387;-67
2023/04/19 04:22:05;;;;;;;14.52;7.90;;;5.70;99.90;;;;;;4996631;28;213800;-67
2023/04/19 04:24:43;;;;;;;15.55;7.60;;;5.70;99.90;;;;;;5043616;28;20044;-68
2023/04/19 04:27:10;;;;;;;15.48;7.78;;;5.70;99.90;;;;;;5002007;28;208920;-67
2023/04/19 04:29:36;;;;;;;16.00;7.55;;;5.70;99.90;;;;;;5044571;28;20075;-67
2023/04/19 04:32:07;;;;;;;14.65;6.85;;;5.60;99.90;;;;;;4990584;28;210049;-67
2023/04/19 04:34:34;;;;;;;16.80;7.10;;;5.60;99.90;;;;;;5049810;28;20048;-67
2023/04/19 04:37:01;;;;;;;14.77;7.43;;;5.60;99.90;;;;;;5009377;28;209684;-67
2023/04/19 04:39:28;;;;;;;13.73;7.53;;;5.70;99.90;;;;;;5048931;28;20067;-68
2023/04/19 04:41:56;;;;;;;13.93;7.10;;;5.60;99.90;;;;;;4992747;28;211760;-67
2023/04/19 04:44:23;;;;;;;14.98;6.85;;;5.60;99.90;;;;;;5042533;28;20061;-68
2023/04/19 04:46:49;;;;;;;11.45;6.85;;;5.60;99.90;;;;;;5001067;28;210700;-68
2023/04/19 04:49:15;;;;;;;13.15;7.13;;;5.60;99.90;;;;;;5042978;28;20045;-68
2023/04/19 04:51:41;;;;;;;16.20;6.95;;;5.60;99.90;;;;;;5004279;28;216522;-67
2023/04/19 04:54:07;;;;;;;13.88;6.18;;;5.60;99.90;;;;;;5053625;28;20411;-68
2023/04/19 04:56:33;;;;;;;15.75;6.50;;;5.60;99.90;;;;;;4981136;28;210271;-67
2023/04/19 04:58:59;;;;;;;15.98;6.60;;;5.60;99.90;;;;;;5050414;28;20409;-67
2023/04/19 05:01:25;;;;;;;13.18;6.82;;;5.60;99.90;;;;;;5020531;28;208242;-67
2023/04/19 05:03:51;;;;;;;12.95;6.70;;;5.70;99.90;;;;;;5075753;28;20048;-67
2023/04/19 05:06:17;;;;;;;15.93;6.57;;;5.70;99.90;;;;;;5012598;28;213923;-67
2023/04/19 05:08:44;;;;;;;14.20;6.40;;;5.80;99.90;;;;;;5071897;28;20049;-66
2023/04/19 05:11:10;;;;;;;17.70;7.10;;;6.10;99.90;;;;;;5017998;28;216203;-68
2023/04/19 05:13:36;;;;;;;13.20;6.43;;;6.40;99.90;;;;;;5090710;28;20421;-67
2023/04/19 05:16:02;;;;;;;14.65;6.50;;;6.70;99.90;;;;;;5060009;28;214133;-66
2023/04/19 05:18:29;;;;;;;14.15;6.60;;;6.80;99.90;;;;;;5021563;28;20061;-66
2023/04/19 05:20:56;;;;;;;13.48;5.90;;;6.90;99.90;;;;;;5076017;28;20048;-67
2023/04/19 05:23:22;;;;;;;12.63;6.28;;;7.10;99.90;;;;;;5019999;28;214188;-68
2023/04/19 05:25:48;;;;;;;15.15;6.20;;;7.30;99.90;;;;;;5074847;28;20048;-66
2023/04/19 05:28:14;;;;;;;13.40;6.32;;;7.40;99.90;;;;;;5006018;28;214015;-67
2023/04/19 05:30:40;;;;;;;13.07;6.10;;;7.60;99.90;;;;;;5060673;28;20063;-67
2023/04/19 05:33:06;;;;;;;10.07;5.22;;;7.80;99.90;;;;;;5015404;28;209808;-67
2023/04/19 05:35:32;;;;;;;14.35;6.10;;;7.90;99.90;;;;;;5076424;28;20525;-67
2023/04/19 05:37:58;;;;;;;13.38;5.93;;;8.00;99.90;;;;;;5026561;28;212361;-69
2023/04/19 05:40:25;;;;;;;15.13;5.55;;;8.20;99.90;;;;;;5077430;28;20166;-68
2023/04/19 05:42:51;;;;;;;11.10;5.35;;;8.30;99.90;;;;;;5007072;28;207510;-67
2023/04/19 05:45:20;;;;;;;11.35;5.40;;;8.40;99.90;;;;;;5072099;28;20056;-66
2023/04/19 05:47:46;;;;;;;11.43;4.95;;;8.50;99.90;;;;;;5012756;28;214097;-66
2023/04/19 05:50:13;;;;;;;12.10;5.07;;;8.70;99.90;;;;;;5062687;28;20049;-67
2023/04/19 05:52:40;;;;;;;12.38;5.28;;;8.80;99.90;;;;;;5009730;28;229422;-67
2023/04/19 05:55:06;;;;;;;10.43;5.10;;;9.10;99.90;;;;;;5068852;28;20057;-67
2023/04/19 05:57:32;;;;;;;12.30;5.05;;;9.20;99.90;;;;;;5000473;28;209231;-69
2023/04/19 05:59:58;;;;;;;12.63;5.13;;;9.30;99.90;;;;;;5071780;28;20460;-67
2023/04/19 06:02:24;;;;;;;15.77;5.25;;;9.60;99.80;;;;;;5022923;28;206181;-67
2023/04/19 06:04:51;;;;;;;12.05;4.90;;;9.70;99.30;;;;;;5075793;28;20430;-67
2023/04/19 06:07:17;;;;;;;11.38;5.05;;;9.70;99.20;;;;;;5009815;28;207015;-66
2023/04/19 06:09:43;;;;;;;11.63;4.95;;;9.80;98.90;;;;;;5067472;28;20063;-66
2023/04/19 06:12:09;;;;;;;10.93;4.70;;;9.80;99.00;;;;;;5020076;28;206233;-68
2023/04/19 06:14:36;;;;;;;12.00;4.38;;;10.00;98.90;;;;;;5085730;28;20040;-67
2023/04/19 06:17:02;;;;;;;11.90;4.72;;;10.00;97.80;;;;;;5017273;28;226685;-67
2023/04/19 06:19:28;;;;;;;13.23;4.80;;;10.20;98.50;;;;;;5070270;28;20068;-67
2023/04/19 06:21:55;;;;;;;13.88;4.70;;;10.20;98.10;;;;;;5005418;28;222789;-68
2023/04/19 06:24:21;;;;;;;11.15;4.80;;;10.20;97.60;;;;;;5045003;28;20450;-66
2023/04/19 06:26:48;;;;;;;9.35;4.38;;;10.40;97.90;;;;;;5010552;28;206883;-66
2023/04/19 06:29:14;;;;;;;10.18;4.32;;;10.50;97.70;;;;;;5066537;28;20052;-67
2023/04/19 06:31:41;;;;;;;9.95;4.72;;;10.70;97.80;;;;;;5016016;28;216093;-66
2023/04/19 06:34:07;;;;;;;14.20;4.63;;;11.00;97.80;;;;;;5070389;28;20055;-67
2023/04/19 06:36:33;;;;;;;11.65;4.50;;;10.90;97.60;;;;;;5031209;28;209596;-66
2023/04/19 06:38:59;;;;;;;10.52;4.35;;;11.00;97.50;;;;;;5070375;28;20052;-68
2023/04/19 06:41:25;;;;;;;10.15;4.15;;;11.10;96.80;;;;;;5021581;28;206774;-68
2023/04/19 06:43:51;;;;;;;11.27;4.13;;;11.30;96.60;;;;;;5069064;28;20063;-68
2023/04/19 06:46:18;;;;;;;8.80;3.80;;;11.50;96.80;;;;;;5018414;28;212506;-68
2023/04/19 06:48:44;;;;;;;12.07;4.20;;;11.70;96.60;;;;;;5085291;28;20417;-68
2023/04/19 06:51:10;;;;;;;9.85;3.83;;;11.90;96.70;;;;;;5026361;28;207543;-69
2023/04/19 06:53:36;;;;;;;9.50;3.72;;;12.10;96.20;;;;;;5063401;28;20048;-68
2023/04/19 06:56:03;;;;;;;10.13;3.40;;;12.10;95.80;;;;;;5048183;28;206776;-67
2023/04/19 06:58:31;;;;;;;10.25;3.92;;;12.10;95.00;;;;;;4972141;28;20057;-67
2023/04/19 07:00:57;;;;;;;10.43;3.53;;;11.80;95.50;;;;;;5044928;28;20051;-67
2023/04/19 07:03:24;;;;;;;10.95;3.50;;;11.90;95.20;;;;;;5002266;28;209397;-67
2023/04/19 07:05:51;;;;;;;8.77;3.30;;;11.80;95.10;;;;;;5079973;28;20510;-67
2023/04/19 07:08:17;;;;;;;11.55;3.33;;;12.30;95.60;;;;;;5017444;28;206688;-66
2023/04/19 07:10:43;;;;;;;9.30;3.45;;;12.20;94.90;;;;;;5075597;28;20044;-66
2023/04/19 07:13:10;;;;;;;10.05;2.97;;;12.40;94.90;;;;;;5033336;28;208163;-66
2023/04/19 07:15:37;;;;;;;12.13;3.25;;;12.60;94.20;;;;;;5084958;28;20051;-66
2023/04/19 07:18:03;;;;;;;9.55;3.42;;;12.60;93.40;;;;;;5015879;28;206990;-66
2023/04/19 07:20:30;;;;;;;8.00;3.00;;;12.50;95.20;;;;;;5079360;28;20052;-66
2023/04/19 07:22:59;;;;;;;9.50;3.22;;;12.80;94.70;;;;;;5019037;28;208113;-66
2023/04/19 07:25:25;;;;;;;8.70;3.20;;;12.90;94.10;;;;;;5076634;28;20052;-68
2023/04/19 07:27:53;;;;;;;9.25;2.88;;;13.20;94.90;;;;;;5028161;28;207347;-66
2023/04/19 07:30:19;;;;;;;10.48;3.08;;;13.10;93.80;;;;;;5074887;28;20451;-67
2023/04/19 07:32:46;;;;;;;8.80;3.08;;;13.10;94.10;;;;;;4998391;28;206944;-66
2023/04/19 07:35:12;;;;;;;7.45;2.60;;;13.40;93.90;;;;;;5075243;28;20051;-65
2023/04/19 07:37:38;;;;;;;8.45;3.20;;;13.70;93.40;;;;;;5029424;28;207606;-66
2023/04/19 07:40:05;;;;;;;8.77;2.92;;;13.70;93.10;;;;;;5083799;28;20056;-66
2023/04/19 07:42:31;;;;;;;10.65;3.00;;;13.30;92.80;;;;;;5029822;28;207344;-66
2023/04/19 07:44:58;;;;;;;7.82;2.60;;;13.50;93.40;;;;;;5075286;28;20047;-66
2023/04/19 07:47:24;;;;;;;9.18;3.03;;;13.60;92.60;;;;;;5010336;28;206161;-66
2023/04/19 07:49:54;;;;;;;8.45;2.78;;;14.10;92.60;;;;;;5074513;28;20058;-67
2023/04/19 07:52:20;;;;;;;9.00;2.72;;;14.30;92.40;;;;;;5026333;28;207650;-66
2023/04/19 07:54:46;;;;;;;7.05;2.83;;;14.50;92.20;;;;;;5080563;28;21217;-66
2023/04/19 07:57:12;;;;;;;9.77;3.13;;;14.40;92.00;;;;;;4998450;28;206800;-66
2023/04/19 07:59:39;;;;;;;10.02;2.50;;;14.40;92.10;;;;;;5058981;28;20041;-66
2023/04/19 08:02:06;;;;;;;8.40;2.80;;;14.50;91.70;;;;;;5002281;28;209058;-65
2023/04/19 08:04:32;;;;;;;10.40;3.08;;;14.80;91.40;;;;;;5055599;28;20787;-65
2023/04/19 08:06:58;;;;;;;7.95;2.90;;;14.90;91.80;;;;;;5019161;28;207616;-68
2023/04/19 08:09:24;;;;;;;8.23;3.03;;;15.20;91.10;;;;;;5082492;28;20048;-66
2023/04/19 08:11:52;;;;;;;9.80;3.10;;;15.60;91.60;;;;;;5006887;28;208389;-65
2023/04/19 08:14:18;;;;;;;8.43;2.90;;;15.40;90.80;;;;;;5048969;28;20068;-66
2023/04/19 08:16:44;;;;;;;9.60;2.90;;;15.30;90.90;;;;;;5002870;28;207022;-66
2023/04/19 08:19:10;;;;;;;9.57;2.42;;;15.30;90.00;;;;;;5054766;28;20435;-66
2023/04/19 08:21:36;;;;;;;9.20;2.97;;;15.20;90.20;;;;;;5014447;28;205208;-66
2023/04/19 08:24:03;;;;;;;8.75;2.60;;;15.20;90.00;;;;;;5060329;28;20051;-66
2023/04/19 08:26:29;;;;;;;10.57;2.90;;;15.40;88.80;;;;;;4996553;28;225529;-67
2023/04/19 08:28:55;;;;;;;9.00;2.50;;;15.80;89.90;;;;;;5056539;28;20053;-67
2023/04/19 08:31:21;;;;;;;10.45;2.90;;;15.90;88.70;;;;;;5002521;28;207217;-67
2023/04/19 08:33:47;;;;;;;10.40;2.90;;;16.30;89.10;;;;;;5025277;28;20155;-67
2023/04/19 08:36:13;;;;;;;7.60;2.30;;;16.70;88.20;;;;;;5006709;28;207250;-67
2023/04/19 08:38:40;;;;;;;8.00;2.53;;;16.50;87.20;;;;;;5059136;28;20071;-67
2023/04/19 08:41:06;;;;;;;7.82;2.13;;;16.90;85.70;;;;;;5005371;28;210704;-65
2023/04/19 08:43:36;;;;;;;7.13;2.20;;;16.60;85.50;;;;;;5050436;28;20056;-66
2023/04/19 08:46:03;;;;;;;8.02;2.38;;;16.40;85.40;;;;;;5042035;28;210667;-66
2023/04/19 08:48:32;;;;;;;9.18;2.60;;;16.70;85.50;;;;;;5025469;28;201220;-67
2023/04/19 08:50:58;;;;;;;8.82;2.35;;;16.70;85.60;;;;;;5060283;28;20063;-66
2023/04/19 08:53:28;;;;;;;8.23;2.22;;;17.20;83.20;;;;;;5004998;28;203706;-67
2023/04/19 08:55:57;;;;;;;14.30;2.88;;;17.90;83.70;;;;;;5076504;28;20574;-66
2023/04/19 08:58:25;;;;;;;11.18;2.25;;;17.90;81.60;;;;;;4977757;28;188815;-66
2023/04/19 09:00:51;;;;;;;8.63;2.40;;;17.60;82.80;;;;;;5077181;28;20071;-66
2023/04/19 09:03:17;;;;;;;8.10;2.22;;;17.90;82.10;;;;;;5046311;28;206904;-65
2023/04/19 09:05:43;;;;;;;8.77;2.20;;;18.20;82.30;;;;;;5078066;28;20135;-67
2023/04/19 09:08:29;;;;;;;7.32;2.15;;;18.30;82.60;;;;;;5027225;28;222753;-67
2023/04/19 09:11:00;;;;;;;7.28;2.10;;;18.30;79.30;;;;;;5072487;28;20575;-66
2023/04/19 09:13:27;;;;;;;;;;;17.80;79.20;;;;;;5023720;28;182127;-66
2023/04/19 09:15:55;;;;;;;9.25;2.10;;;17.30;78.20;;;;;;5084239;28;19923;-66
2023/04/19 09:18:24;;;;;;;7.07;2.10;;;17.40;79.20;;;;;;5011309;28;207189;-66
2023/04/19 09:20:56;;;;;;;8.70;2.15;;;17.60;79.60;;;;;;5076967;28;20510;-67
2023/04/19 09:23:26;;;;;;;7.75;2.03;;;18.20;79.40;;;;;;5014532;28;224656;-66
2023/04/19 09:26:01;;;;;;;7.18;2.10;;;19.00;79.60;;;;;;5079269;28;20067;-66
2023/04/19 09:28:30;;;;;;;10.07;2.05;;;19.80;78.30;;;;;;5019292;28;202534;-67
2023/04/19 09:30:57;;;;;;;7.75;2.42;;;19.00;74.40;;;;;;5061606;28;20048;-67
2023/04/19 09:33:35;;;;;;;8.27;2.33;;;19.30;74.40;;;;;;5000342;28;206928;-66
2023/04/19 09:36:01;;;;;;;8.88;2.25;;;19.50;74.60;;;;;;5068433;28;207766;-67
2023/04/19 09:38:27;;;;;;;11.02;2.30;;;19.40;72.60;;;;;;5023744;28;205901;-67
2023/04/19 09:41:06;;;;;;;7.57;1.73;;;19.10;73.30;;;;;;5077342;28;20044;-66
2023/04/19 09:43:33;;;;;;;8.13;2.17;;;19.40;72.00;;;;;;5006522;28;148788;-67
2023/04/19 09:45:59;;;;;;;6.13;1.83;;;19.70;74.00;;;;;;5081295;27;20123;-66
2023/04/19 09:48:25;;;;;;;5.65;1.60;;;20.10;72.00;;;;;;5021157;28;276044;-67
2023/04/19 09:50:53;;;;;;;7.70;1.60;;;20.10;70.20;;;;;;5083755;28;20075;-67
2023/04/19 09:53:21;;;;;;;7.00;1.77;;;19.90;71.50;;;;;;4988351;28;210088;-67
2023/04/19 09:55:47;;;;;;;9.27;1.90;;;20.40;71.80;;;;;;5078021;28;20529;-66
2023/04/19 09:58:18;;;;;;;7.28;2.15;;;20.00;69.80;;;;;;4990963;28;207572;-66
2023/04/19 10:00:46;;;;;;;6.60;1.80;;;20.10;71.20;;;;;;5078759;28;20056;-66
2023/04/19 10:03:15;;;;;;;6.78;1.80;;;20.90;70.30;;;;;;5045428;28;210226;-66
2023/04/19 10:05:42;;;;;;;7.28;1.60;;;21.10;68.60;;;;;;5075607;28;20353;-67
2023/04/19 10:08:09;;;;;;;6.07;1.70;;;20.90;69.80;;;;;;5003693;28;193679;-67
2023/04/19 10:10:36;;;;;;;7.03;1.67;;;21.00;67.60;;;;;;5078215;28;20032;-66
2023/04/19 10:13:06;;;;;;;11.45;1.80;;;20.50;66.60;;;;;;5017598;27;206334;-67
2023/04/19 10:15:34;;;;;;;6.93;1.80;;;20.00;65.70;;;;;;5076438;28;20059;-69
2023/04/19 10:18:02;;;;;;;9.02;1.52;;;20.30;66.60;;;;;;5009915;28;207345;-67
2023/04/19 10:20:56;;;;;;;8.70;1.70;;;20.50;66.70;;;;;;5076060;28;20049;-68
2023/04/19 10:23:23;;;;;;;6.20;1.58;;;20.10;63.40;;;;;;5024878;28;207913;-68
2023/04/19 10:25:58;;;;;;;6.55;1.50;;;20.20;63.30;;;;;;5081388;28;20367;-68
2023/04/19 10:28:26;;;;;;;6.43;1.70;;;19.90;63.50;;;;;;5011998;28;206892;-67
2023/04/19 10:30:56;;;;;;;6.90;1.45;;;19.60;64.30;;;;;;5074270;28;20064;-68
2023/04/19 10:33:35;;;;;;;5.50;1.40;;;20.40;64.90;;;;;;5000018;28;210137;-67
2023/04/19 10:36:02;;;;;;;6.85;1.50;;;19.80;63.60;;;;;;5052981;28;209836;-67
2023/04/19 10:38:44;;;;;;;6.25;1.40;;;19.20;63.10;;;;;;5063363;28;132834;-67
2023/04/19 10:41:10;;;;;;;6.78;1.35;;;19.40;63.20;;;;;;5017941;28;211358;-66
2023/04/19 10:43:38;;;;;;;5.50;1.50;;;18.70;64.50;;;;;;5068271;28;20052;-68
2023/04/19 10:46:09;;;;;;;5.85;1.27;;;19.00;65.30;;;;;;5038735;28;207741;-66
2023/04/19 10:48:40;;;;;;;11.43;1.40;;;19.00;63.80;;;;;;5008115;28;20411;-66
2023/04/19 10:51:18;;;;;;;;;;;18.80;64.50;;;;;;5026146;28;206760;-66
2023/04/19 10:53:51;;;;;;;6.38;1.60;;;18.60;64.50;;;;;;5037215;28;19916;-67
2023/04/19 10:56:20;;;;;;;7.60;1.65;;;18.80;66.70;;;;;;4999444;28;207266;-67
2023/04/19 10:59:01;;;;;;;7.97;1.50;;;19.20;65.40;;;;;;5043114;28;20059;-66
2023/04/19 11:01:39;;;;;;;5.30;1.50;;;19.10;65.50;;;;;;5019734;28;53002;-67
2023/04/19 11:04:10;;;;;;;5.57;1.40;;;19.10;65.70;;;;;;5077945;28;20521;-67
2023/04/19 11:06:55;;;;;;;6.05;1.63;;;18.90;64.80;;;;;;5011395;28;215524;-66
2023/04/19 11:09:27;;;;;;;16.40;1.48;;;19.10;64.40;;;;;;5072129;28;20059;-68
2023/04/19 11:12:01;;;;;;;7.50;1.60;;;18.90;63.50;;;;;;5019486;28;219900;-67
2023/04/19 11:14:31;;;;;;;7.95;1.30;;;19.00;65.10;;;;;;5068249;28;20055;-68
2023/04/19 11:16:57;;;;;;;5.37;1.50;;;19.40;64.10;;;;;;5006817;28;212505;-68
2023/04/19 11:19:23;;;;;;;6.97;1.73;;;19.50;66.40;;;;;;5065928;28;20043;-67
2023/04/19 11:21:49;;;;;;;5.88;1.73;;;19.10;64.60;;;;;;5016570;28;209375;-67
2023/04/19 11:24:17;;;;;;;5.50;1.30;;;18.80;65.20;;;;;;5074758;28;20447;-67
2023/04/19 11:26:49;;;;;;;6.28;1.45;;;18.90;64.80;;;;;;5023666;28;208595;-66
2023/04/19 11:29:15;;;;;;;5.53;1.40;;;18.70;64.40;;;;;;5069158;28;20079;-67
2023/04/19 11:31:45;;;;;;;7.13;1.60;;;18.50;65.20;;;;;;5010927;28;222229;-67
2023/04/19 11:34:12;;;;;;;5.60;1.70;;;18.60;65.30;;;;;;5068224;28;20047;-68
2023/04/19 11:36:51;;;;;;;8.48;1.58;;;19.10;66.10;;;;;;5019748;28;207511;-67
2023/04/19 11:39:18;;;;;;;6.55;1.63;;;19.20;64.60;;;;;;5079776;28;20052;-68
2023/04/19 11:41:46;;;;;;;4.78;1.45;;;18.80;65.30;;;;;;5021990;28;211362;-67
2023/04/19 11:44:19;;;;;;;5.47;1.45;;;18.50;65.00;;;;;;5072686;28;20055;-67
2023/04/19 11:47:02;;;;;;;7.80;2.00;;;18.70;64.70;;;;;;5031002;28;207599;-65
2023/04/19 11:49:30;;;;;;;7.60;1.80;;;19.00;65.50;;;;;;5082789;28;20053;-67
2023/04/19 11:51:59;;;;;;;6.35;1.80;;;18.80;65.50;;;;;;5012964;28;207572;-69
2023/04/19 11:54:25;;;;;;;9.35;1.70;;;18.60;65.90;;;;;;5065443;28;20749;-68
2023/04/19 11:57:04;;;;;;;6.38;2.08;;;18.80;66.70;;;;;;4992395;28;207023;-66
2023/04/19 11:59:32;;;;;;;8.60;1.80;;;18.60;66.20;;;;;;5050680;28;20056;-66
2023/04/19 12:02:09;;;;;;;7.18;1.80;;;19.00;67.70;;;;;;5008580;28;207543;-67
2023/04/19 12:04:35;;;;;;;6.88;2.00;;;19.40;65.40;;;;;;5079907;28;20044;-67
2023/04/19 12:07:04;;;;;;;6.65;2.03;;;19.10;64.70;;;;;;5015448;28;209358;-66
2023/04/19 12:09:33;;;;;;;8.35;2.05;;;19.30;64.20;;;;;;5064125;28;20060;-66
2023/04/19 12:12:01;;;;;;;8.65;2.38;;;19.50;65.30;;;;;;5019463;28;211015;-67
2023/04/19 12:14:27;;;;;;;7.43;2.30;;;19.70;64.40;;;;;;5084157;28;20052;-68
2023/04/19 12:17:20;;;;;;;7.35;2.30;;;19.10;64.00;;;;;;5027551;28;207455;-68
2023/04/19 12:19:47;;;;;;;9.73;2.05;;;19.50;65.20;;;;;;5080863;28;20048;-67
2023/04/19 12:22:15;;;;;;;8.15;2.03;;;19.60;64.10;;;;;;5017570;28;211323;-67
2023/04/19 12:24:41;;;;;;;9.00;2.50;;;19.50;66.30;;;;;;5076538;28;20045;-67
2023/04/19 12:27:08;;;;;;;8.73;2.72;;;19.40;66.00;;;;;;5014051;28;215767;-67
2023/04/19 12:29:34;;;;;;;8.57;2.42;;;18.80;67.10;;;;;;5082188;28;20525;-67
2023/04/19 12:32:02;;;;;;;8.35;2.80;;;19.20;67.10;;;;;;5014714;28;207997;-67
2023/04/19 12:34:28;;;;;;;8.40;2.50;;;18.70;67.20;;;;;;5064582;28;20079;-69
2023/04/19 12:36:55;;;;;;;7.45;2.40;;;19.00;67.50;;;;;;5019414;28;207215;-67
2023/04/19 12:39:21;;;;;;;8.15;2.60;;;18.90;67.00;;;;;;5084945;28;20052;-67
2023/04/19 12:41:48;;;;;;;8.15;2.55;;;18.60;68.00;;;;;;5030209;28;224142;-66